Thermopolis, WY (82443)

4:42 AM MDT on October 01, 2016 (GMT -0600)
APRSWXNET | | Change Station

Elev 4425 ft 43.64 °N, 108.23 °W | Updated 27 minutes ago

Clear
Clear
49 °F
Feels Like 49 °F
N
0
Wind Variable Wind from North
Gusts 0.0 mph

Today
High -- | Low -- °F
--% Chance of Precip.
Yesterday
High -- | Low -- °F
Precip. -- in
Pressure 29.97 in
Visibility 10.0 miles
Clouds Clear
Windchill 49 °F
Dew Point 41 °F
Humidity 75%
Rainfall in
Snow Depth Not available.
7:11 AM 6:52 PM
New Moon, 0% visible
METAR KWRL 010953Z AUTO 21004KT 10SM CLR 09/07 A3005 RMK AO2 SLP148 T00940072
Pressure 29.97 in
Visibility 10.0 miles
Clouds Clear
Windchill 49 °F
Dew Point 41 °F
Humidity 75%
Rainfall in
Snow Depth Not available.
7:11 AM 6:52 PM
New Moon, 0% visible
METAR KWRL 010953Z AUTO 21004KT 10SM CLR 09/07 A3005 RMK AO2 SLP148 T00940072

10-Day Weather Forecast

Almanac

Astronomy

Oct. 01, 2016 Rise Set
Actual Time
Civil Twilight
Nautical Twilight
Astronomical Twilight
Moon
Length of Visible Light
Length of Day
Tomorrow will be .
, % of the Moon is Illuminated

Today's Extremes

State Highs State Lows

Community

WunderPhotos

Upload Photos

1,942,908 photos uploaded!

WunderBlog® & News

Nearby

Air Quality

  Air Quality AQ Index Pollutant
Not available.

Snow Depth

Station Depth Elevation

Earthquake Activity

City Distance Mag. Time & Date
Minimum magnitude displayed is 2.5.

Coastal Water Temperatures

Place Temperature

Stations

Nearby Weather Stations

Station Location Temp. Windchill Dew Point Humidity Wind Precip. Elev Updated Type
                   

Watches & Warnings

There are currently no watches in effect.